Airfield :
LOGIN :

Register | Disclaimer

   EN    FR    IT 

 










Legend :    VFR   Marginal VFR   IFR   Intensive IFR   Very Intensive IFR
Visi :
Ceiling :
>= 8 km
>= 3000ft
5 to 8 km
1000 to 3000 ft
1500m to 5 km
500 to 1000 ft
800 to 1500m
200 to 500 ft
< 800m
< 200 ft
Symbols :   Thunderstorms  Fog  Heavy snow  Heavy precipitations  Wind > 20 kt
SIGMETs :     Misc.  Thunderstorms  Icing  Turbulence  Mountain Waves  Volcanic Ashes







- Airport Elevation : 16 ft
- IATA code : EAS


LESO - San Sebastian Fuenterrabia

CURRENT METAR :
  • 211130Z 06007KT 010V100 CAVOK 30/12 Q1018

EXPIRED METARs :
  • 211100Z 06006KT 030V100 CAVOK 29/14 Q1018
  • 211030Z 05004KT 350V100 CAVOK 28/15 Q1018
  • 211000Z 35003KT 300V030 CAVOK 25/17 Q1019
  • 210930Z 01005KT 320V060 CAVOK 24/15 Q1019
  • 210900Z 01003KT 320V050 CAVOK 23/16 Q1019

TAF TAF LESO
Valid from the 21 at 12:00 until the 22 at 12:00 UTC


211100Z 2112/2212 02010KT CAVOK TX31/2115Z TN21/2206Z
BECMG 2119/2123 10005KT
PROB40
TEMPO 2200/2206 17018G28KT
BECMG 2210/2212 30012KT
No reported NOTAMs for that airfield.



MET'MAP, your aeronautical weather chart ! - Copyright ORBIFLY December 2007 - Disclaimer

ORBIFLY MET'MAP TEAM :

Programming & Development : Alexandra Zaïnal
Concept & Development : Baudouin d'Aumeries
Co-Development & Prog : Marc-Olivier Méhu
Technical & hardware support : Manuel Goepfert

Contact : metmap@orbifly.com




SOURCES & CREDITS :

   NOAA